sensor_id;sensor_type;location;lat;lon;timestamp;pressure;altitude;pressure_sealevel;temperature;humidity
50065;BME280;35951;47.848;-122.338;2022-08-21T00:01:54;101115.95;;;21.70;100.00
50065;BME280;35951;47.848;-122.338;2022-08-21T00:04:22;101112.17;;;21.64;100.00
50065;BME280;35951;47.848;-122.338;2022-08-21T00:06:51;101112.72;;;21.60;100.00
50065;BME280;35951;47.848;-122.338;2022-08-21T00:09:18;101110.22;;;21.56;100.00
50065;BME280;35951;47.848;-122.338;2022-08-21T00:11:47;101107.22;;;21.52;100.00
50065;BME280;35951;47.848;-122.338;2022-08-21T00:14:15;101106.05;;;21.47;100.00
50065;BME280;35951;47.848;-122.338;2022-08-21T00:16:42;101106.94;;;21.44;100.00
50065;BME280;35951;47.848;-122.338;2022-08-21T00:19:10;101105.22;;;21.45;100.00
50065;BME280;35951;47.848;-122.338;2022-08-21T00:21:38;101103.08;;;21.41;100.00
50065;BME280;35951;47.848;-122.338;2022-08-21T00:24:06;101100.88;;;21.41;100.00
50065;BME280;35951;47.848;-122.338;2022-08-21T00:26:33;101103.12;;;21.40;100.00
50065;BME280;35951;47.848;-122.338;2022-08-21T00:29:01;101102.73;;;21.37;100.00
50065;BME280;35951;47.848;-122.338;2022-08-21T00:31:29;101100.09;;;21.37;100.00
50065;BME280;35951;47.848;-122.338;2022-08-21T00:33:56;101097.09;;;21.35;100.00
50065;BME280;35951;47.848;-122.338;2022-08-21T00:36:25;101102.41;;;21.33;100.00
50065;BME280;35951;47.848;-122.338;2022-08-21T00:38:53;101097.59;;;21.33;100.00
50065;BME280;35951;47.848;-122.338;2022-08-21T00:41:21;101092.30;;;21.33;100.00
50065;BME280;35951;47.848;-122.338;2022-08-21T00:43:49;101091.80;;;21.35;100.00
50065;BME280;35951;47.848;-122.338;2022-08-21T00:46:18;101091.63;;;21.41;100.00
50065;BME280;35951;47.848;-122.338;2022-08-21T00:48:46;101086.26;;;21.45;100.00
50065;BME280;35951;47.848;-122.338;2022-08-21T00:51:19;101087.94;;;21.48;100.00
50065;BME280;35951;47.848;-122.338;2022-08-21T00:53:53;101084.90;;;21.47;100.00
50065;BME280;35951;47.848;-122.338;2022-08-21T00:56:24;101089.72;;;21.47;100.00
50065;BME280;35951;47.848;-122.338;2022-08-21T00:58:53;101084.40;;;21.49;100.00
50065;BME280;35951;47.848;-122.338;2022-08-21T01:01:23;101087.00;;;21.51;100.00
50065;BME280;35951;47.848;-122.338;2022-08-21T01:03:51;101082.53;;;21.53;100.00
50065;BME280;35951;47.848;-122.338;2022-08-21T01:06:20;101085.03;;;21.57;100.00
50065;BME280;35951;47.848;-122.338;2022-08-21T01:08:48;101082.81;;;21.58;100.00
50065;BME280;35951;47.848;-122.338;2022-08-21T01:11:17;101082.81;;;21.58;100.00
50065;BME280;35951;47.848;-122.338;2022-08-21T01:13:45;101082.39;;;21.57;100.00
50065;BME280;35951;47.848;-122.338;2022-08-21T01:16:15;101082.85;;;21.57;100.00
50065;BME280;35951;47.848;-122.338;2022-08-21T01:18:45;101075.85;;;21.56;100.00
50065;BME280;35951;47.848;-122.338;2022-08-21T01:21:21;101077.61;;;21.55;100.00
50065;BME280;35951;47.848;-122.338;2022-08-21T01:23:52;101075.78;;;21.57;100.00
50065;BME280;35951;47.848;-122.338;2022-08-21T01:26:23;101077.61;;;21.55;100.00
50065;BME280;35951;47.848;-122.338;2022-08-21T01:29:11;101077.25;;;21.53;100.00
50065;BME280;35951;47.848;-122.338;2022-08-21T01:31:51;101070.72;;;21.50;100.00
50065;BME280;35951;47.848;-122.338;2022-08-21T01:34:18;101067.18;;;21.51;100.00
50065;BME280;35951;47.848;-122.338;2022-08-21T01:36:46;101066.29;;;21.50;100.00
50065;BME280;35951;47.848;-122.338;2022-08-21T01:39:14;101060.14;;;21.50;100.00
50065;BME280;35951;47.848;-122.338;2022-08-21T01:41:42;101057.03;;;21.50;100.00
50065;BME280;35951;47.848;-122.338;2022-08-21T01:44:10;101051.32;;;21.51;100.00
50065;BME280;35951;47.848;-122.338;2022-08-21T01:46:38;101059.64;;;21.52;100.00
50065;BME280;35951;47.848;-122.338;2022-08-21T01:49:06;101053.50;;;21.51;100.00
50065;BME280;35951;47.848;-122.338;2022-08-21T01:51:35;101049.53;;;21.51;100.00
50065;BME280;35951;47.848;-122.338;2022-08-21T01:54:03;101048.17;;;21.53;100.00
50065;BME280;35951;47.848;-122.338;2022-08-21T01:56:40;101050.39;;;21.52;100.00
50065;BME280;35951;47.848;-122.338;2022-08-21T01:59:05;101049.96;;;21.52;100.00
50065;BME280;35951;47.848;-122.338;2022-08-21T02:01:33;101053.03;;;21.52;100.00
50065;BME280;35951;47.848;-122.338;2022-08-21T02:04:01;101046.93;;;21.50;100.00
50065;BME280;35951;47.848;-122.338;2022-08-21T02:06:29;101049.11;;;21.50;100.00
50065;BME280;35951;47.848;-122.338;2022-08-21T02:08:57;101045.92;;;21.54;100.00
50065;BME280;35951;47.848;-122.338;2022-08-21T02:11:24;101047.63;;;21.56;100.00
50065;BME280;35951;47.848;-122.338;2022-08-21T02:13:53;101047.17;;;21.57;100.00
50065;BME280;35951;47.848;-122.338;2022-08-21T02:16:20;101045.38;;;21.57;100.00
50065;BME280;35951;47.848;-122.338;2022-08-21T02:18:48;101046.66;;;21.59;100.00
50065;BME280;35951;47.848;-122.338;2022-08-21T02:21:16;101044.02;;;21.59;100.00
50065;BME280;35951;47.848;-122.338;2022-08-21T02:23:45;101045.38;;;21.57;100.00
50065;BME280;35951;47.848;-122.338;2022-08-21T02:26:12;101055.14;;;21.55;100.00
50065;BME280;35951;47.848;-122.338;2022-08-21T02:28:41;101053.46;;;21.53;100.00
50065;BME280;35951;47.848;-122.338;2022-08-21T02:31:10;101061.00;;;21.50;100.00
50065;BME280;35951;47.848;-122.338;2022-08-21T02:33:38;101068.11;;;21.48;100.00
50065;BME280;35951;47.848;-122.338;2022-08-21T02:36:07;101067.75;;;21.45;100.00
50065;BME280;35951;47.848;-122.338;2022-08-21T02:38:36;101072.19;;;21.43;100.00
50065;BME280;35951;47.848;-122.338;2022-08-21T02:41:07;101071.73;;;21.44;100.00
50065;BME280;35951;47.848;-122.338;2022-08-21T02:43:36;101073.50;;;21.45;100.00
50065;BME280;35951;47.848;-122.338;2022-08-21T02:46:06;101080.16;;;21.42;100.00
50065;BME280;35951;47.848;-122.338;2022-08-21T02:48:35;101084.55;;;21.43;100.00
50065;BME280;35951;47.848;-122.338;2022-08-21T02:51:04;101086.34;;;21.41;100.00
50065;BME280;35951;47.848;-122.338;2022-08-21T02:53:34;101089.44;;;21.40;100.00
50065;BME280;35951;47.848;-122.338;2022-08-21T02:56:05;101091.27;;;21.38;100.00
50065;BME280;35951;47.848;-122.338;2022-08-21T02:58:36;101099.19;;;21.38;100.00
50065;BME280;35951;47.848;-122.338;2022-08-21T03:01:06;101093.95;;;21.37;100.00
50065;BME280;35951;47.848;-122.338;2022-08-21T03:03:36;101099.27;;;21.35;100.00
50065;BME280;35951;47.848;-122.338;2022-08-21T03:06:06;101096.73;;;21.32;100.00
50065;BME280;35951;47.848;-122.338;2022-08-21T03:08:35;101092.52;;;21.25;100.00
50065;BME280;35951;47.848;-122.338;2022-08-21T03:11:03;101092.62;;;21.20;100.00
50065;BME280;35951;47.848;-122.338;2022-08-21T03:13:31;101092.76;;;21.16;100.00
50065;BME280;35951;47.848;-122.338;2022-08-21T03:15:59;101103.79;;;21.14;100.00
50065;BME280;35951;47.848;-122.338;2022-08-21T03:18:28;101102.14;;;21.09;100.00
50065;BME280;35951;47.848;-122.338;2022-08-21T03:20:55;101109.70;;;21.07;100.00
50065;BME280;35951;47.848;-122.338;2022-08-21T03:23:23;101106.31;;;21.02;100.00
50065;BME280;35951;47.848;-122.338;2022-08-21T03:25:51;101111.23;;;20.99;100.00
50065;BME280;35951;47.848;-122.338;2022-08-21T03:28:20;101115.66;;;20.97;100.00
50065;BME280;35951;47.848;-122.338;2022-08-21T03:30:50;101119.78;;;20.91;100.00
50065;BME280;35951;47.848;-122.338;2022-08-21T03:33:21;101115.92;;;20.86;100.00
50065;BME280;35951;47.848;-122.338;2022-08-21T03:35:55;101119.55;;;20.82;100.00
50065;BME280;35951;47.848;-122.338;2022-08-21T03:38:28;101126.25;;;20.79;100.00
50065;BME280;35951;47.848;-122.338;2022-08-21T03:40:57;101125.84;;;20.77;100.00
50065;BME280;35951;47.848;-122.338;2022-08-21T03:43:26;101122.08;;;20.69;100.00
50065;BME280;35951;47.848;-122.338;2022-08-21T03:45:54;101128.41;;;20.62;100.00
50065;BME280;35951;47.848;-122.338;2022-08-21T03:48:22;101122.33;;;20.57;100.00
50065;BME280;35951;47.848;-122.338;2022-08-21T03:50:52;101128.13;;;20.53;100.00
50065;BME280;35951;47.848;-122.338;2022-08-21T03:53:20;101130.41;;;20.50;100.00
50065;BME280;35951;47.848;-122.338;2022-08-21T03:55:50;101130.92;;;20.47;100.00
50065;BME280;35951;47.848;-122.338;2022-08-21T03:58:21;101131.44;;;20.43;100.00
50065;BME280;35951;47.848;-122.338;2022-08-21T04:00:52;101130.16;;;20.42;100.00
50065;BME280;35951;47.848;-122.338;2022-08-21T04:03:21;101131.96;;;20.40;100.00
50065;BME280;35951;47.848;-122.338;2022-08-21T04:05:49;101146.65;;;20.32;100.00
50065;BME280;35951;47.848;-122.338;2022-08-21T04:08:17;101146.81;;;20.23;100.00
50065;BME280;35951;47.848;-122.338;2022-08-21T04:10:46;101147.33;;;20.19;100.00
50065;BME280;35951;47.848;-122.338;2022-08-21T04:13:16;101146.11;;;20.16;100.00
50065;BME280;35951;47.848;-122.338;2022-08-21T04:15:43;101150.95;;;20.15;100.00
50065;BME280;35951;47.848;-122.338;2022-08-21T04:18:11;101154.91;;;20.15;100.00
50065;BME280;35951;47.848;-122.338;2022-08-21T04:20:39;101157.54;;;20.15;100.00
50065;BME280;35951;47.848;-122.338;2022-08-21T04:23:08;101164.13;;;20.15;100.00
50065;BME280;35951;47.848;-122.338;2022-08-21T04:25:36;101162.44;;;20.12;100.00
50065;BME280;35951;47.848;-122.338;2022-08-21T04:28:03;101163.81;;;20.09;100.00
50065;BME280;35951;47.848;-122.338;2022-08-21T04:30:32;101170.44;;;20.08;100.00
50065;BME280;35951;47.848;-122.338;2022-08-21T04:33:00;101172.23;;;20.06;100.00
50065;BME280;35951;47.848;-122.338;2022-08-21T04:35:29;101173.61;;;20.03;100.00
50065;BME280;35951;47.848;-122.338;2022-08-21T04:37:58;101177.56;;;20.03;100.00
50065;BME280;35951;47.848;-122.338;2022-08-21T04:40:26;101178.94;;;20.01;100.00
50065;BME280;35951;47.848;-122.338;2022-08-21T04:42:57;101179.80;;;20.02;100.00
50065;BME280;35951;47.848;-122.338;2022-08-21T04:45:29;101183.30;;;20.02;100.00
50065;BME280;35951;47.848;-122.338;2022-08-21T04:48:00;101178.97;;;20.00;100.00
50065;BME280;35951;47.848;-122.338;2022-08-21T04:53:34;101185.64;;;19.95;100.00
50065;BME280;35951;47.848;-122.338;2022-08-21T04:56:25;101186.13;;;19.93;100.00
50065;BME280;35951;47.848;-122.338;2022-08-21T04:58:59;101192.34;;;19.90;100.00
50065;BME280;35951;47.848;-122.338;2022-08-21T05:01:32;101188.91;;;19.85;100.00
50065;BME280;35951;47.848;-122.338;2022-08-21T05:04:03;101198.16;;;19.84;100.00
50065;BME280;35951;47.848;-122.338;2022-08-21T05:06:33;101194.69;;;19.82;100.00
50065;BME280;35951;47.848;-122.338;2022-08-21T05:09:04;101186.78;;;19.82;100.00
50065;BME280;35951;47.848;-122.338;2022-08-21T05:11:32;101196.02;;;19.82;100.00
50065;BME280;35951;47.848;-122.338;2022-08-21T05:14:01;101197.79;;;19.81;100.00
50065;BME280;35951;47.848;-122.338;2022-08-21T05:16:28;101193.40;;;19.80;100.00
50065;BME280;35951;47.848;-122.338;2022-08-21T05:18:56;101199.98;;;19.80;100.00
50065;BME280;35951;47.848;-122.338;2022-08-21T05:21:23;101202.19;;;19.79;100.00
50065;BME280;35951;47.848;-122.338;2022-08-21T05:23:51;101196.08;;;19.77;100.00
50065;BME280;35951;47.848;-122.338;2022-08-21T05:26:20;101199.66;;;19.74;100.00
50065;BME280;35951;47.848;-122.338;2022-08-21T05:28:48;101200.56;;;19.72;100.00
50065;BME280;35951;47.848;-122.338;2022-08-21T05:31:15;101196.20;;;19.69;100.00
50065;BME280;35951;47.848;-122.338;2022-08-21T05:33:43;101197.14;;;19.67;100.00
50065;BME280;35951;47.848;-122.338;2022-08-21T05:36:11;101203.30;;;19.66;100.00
50065;BME280;35951;47.848;-122.338;2022-08-21T05:38:38;101201.14;;;19.64;100.00
50065;BME280;35951;47.848;-122.338;2022-08-21T05:41:06;101204.27;;;19.60;100.00
50065;BME280;35951;47.848;-122.338;2022-08-21T05:43:34;101196.41;;;19.57;100.00
50065;BME280;35951;47.848;-122.338;2022-08-21T05:46:03;101193.86;;;19.54;100.00
50065;BME280;35951;47.848;-122.338;2022-08-21T05:48:32;101204.88;;;19.52;100.00
50065;BME280;35951;47.848;-122.338;2022-08-21T05:51:05;101198.72;;;19.51;100.00
50065;BME280;35951;47.848;-122.338;2022-08-21T05:53:35;101201.83;;;19.49;100.00
50065;BME280;35951;47.848;-122.338;2022-08-21T05:56:03;101200.97;;;19.49;100.00
50065;BME280;35951;47.848;-122.338;2022-08-21T05:58:33;101204.48;;;19.48;100.00
50065;BME280;35951;47.848;-122.338;2022-08-21T06:01:01;101206.28;;;19.46;100.00
50065;BME280;35951;47.848;-122.338;2022-08-21T06:03:31;101211.17;;;19.43;100.00
50065;BME280;35951;47.848;-122.338;2022-08-21T06:06:00;101208.14;;;19.39;100.00
50065;BME280;35951;47.848;-122.338;2022-08-21T06:08:29;101209.05;;;19.38;100.00
50065;BME280;35951;47.848;-122.338;2022-08-21T06:10:58;101214.34;;;19.36;100.00
50065;BME280;35951;47.848;-122.338;2022-08-21T06:13:27;101223.11;;;19.37;100.00
50065;BME280;35951;47.848;-122.338;2022-08-21T06:16:04;101220.05;;;19.37;100.00
50065;BME280;35951;47.848;-122.338;2022-08-21T06:18:40;101223.55;;;19.38;100.00
50065;BME280;35951;47.848;-122.338;2022-08-21T06:21:07;101227.95;;;19.37;100.00
50065;BME280;35951;47.848;-122.338;2022-08-21T06:23:35;101222.70;;;19.36;100.00
50065;BME280;35951;47.848;-122.338;2022-08-21T06:26:05;101220.97;;;19.33;100.00
50065;BME280;35951;47.848;-122.338;2022-08-21T06:28:35;101215.32;;;19.31;100.00
50065;BME280;35951;47.848;-122.338;2022-08-21T06:31:11;101218.83;;;19.30;100.00
50065;BME280;35951;47.848;-122.338;2022-08-21T06:33:44;101208.39;;;19.25;100.00
50065;BME280;35951;47.848;-122.338;2022-08-21T06:36:12;101217.19;;;19.23;100.00
50065;BME280;35951;47.848;-122.338;2022-08-21T06:38:41;101221.64;;;19.19;100.00
50065;BME280;35951;47.848;-122.338;2022-08-21T06:41:08;101227.41;;;19.15;100.00
50065;BME280;35951;47.848;-122.338;2022-08-21T06:43:36;101226.16;;;19.12;100.00
50065;BME280;35951;47.848;-122.338;2022-08-21T06:46:04;101230.98;;;19.11;100.00
50065;BME280;35951;47.848;-122.338;2022-08-21T06:48:32;101234.55;;;19.09;100.00
50065;BME280;35951;47.848;-122.338;2022-08-21T06:51:00;101238.52;;;19.07;100.00
50065;BME280;35951;47.848;-122.338;2022-08-21T06:53:28;101238.98;;;19.05;100.00
50065;BME280;35951;47.848;-122.338;2022-08-21T06:55:56;101243.40;;;19.05;100.00
50065;BME280;35951;47.848;-122.338;2022-08-21T06:58:23;101238.57;;;19.03;100.00
50065;BME280;35951;47.848;-122.338;2022-08-21T07:00:51;101242.09;;;19.03;100.00
50065;BME280;35951;47.848;-122.338;2022-08-21T07:03:22;101235.53;;;19.02;100.00
50065;BME280;35951;47.848;-122.338;2022-08-21T07:05:56;101240.81;;;19.00;100.00
50065;BME280;35951;47.848;-122.338;2022-08-21T07:08:25;101239.11;;;18.97;100.00
50065;BME280;35951;47.848;-122.338;2022-08-21T07:10:55;101243.11;;;18.93;100.00
50065;BME280;35951;47.848;-122.338;2022-08-21T07:13:23;101244.92;;;18.89;100.00
50065;BME280;35951;47.848;-122.338;2022-08-21T07:15:52;101248.89;;;18.88;100.00
50065;BME280;35951;47.848;-122.338;2022-08-21T07:18:20;101247.59;;;18.86;100.00
50065;BME280;35951;47.848;-122.338;2022-08-21T07:20:48;101246.73;;;18.86;100.00
50065;BME280;35951;47.848;-122.338;2022-08-21T07:25:51;101261.20;;;18.86;100.00
50065;BME280;35951;47.848;-122.338;2022-08-21T07:28:20;101262.94;;;18.88;100.00
50065;BME280;35951;47.848;-122.338;2022-08-21T07:30:52;101263.36;;;18.88;100.00
50065;BME280;35951;47.848;-122.338;2022-08-21T07:33:22;101261.19;;;18.87;100.00
50065;BME280;35951;47.848;-122.338;2022-08-21T07:35:52;101268.63;;;18.88;100.00
50065;BME280;35951;47.848;-122.338;2022-08-21T07:38:20;101266.02;;;18.86;100.00
50065;BME280;35951;47.848;-122.338;2022-08-21T07:40:52;101266.45;;;18.87;100.00
50065;BME280;35951;47.848;-122.338;2022-08-21T07:43:21;101270.40;;;18.87;100.00
50065;BME280;35951;47.848;-122.338;2022-08-21T07:45:50;101275.65;;;18.89;100.00
50065;BME280;35951;47.848;-122.338;2022-08-21T07:48:18;101270.84;;;18.88;100.00
50065;BME280;35951;47.848;-122.338;2022-08-21T07:50:47;101273.91;;;18.86;100.00
50065;BME280;35951;47.848;-122.338;2022-08-21T07:53:15;101274.35;;;18.87;100.00
50065;BME280;35951;47.848;-122.338;2022-08-21T07:55:43;101281.37;;;18.88;100.00
50065;BME280;35951;47.848;-122.338;2022-08-21T07:58:11;101280.06;;;18.87;100.00
50065;BME280;35951;47.848;-122.338;2022-08-21T08:00:40;101281.81;;;18.86;100.00
50065;BME280;35951;47.848;-122.338;2022-08-21T08:03:08;101287.55;;;18.84;100.00
50065;BME280;35951;47.848;-122.338;2022-08-21T08:05:36;101285.36;;;18.84;100.00
50065;BME280;35951;47.848;-122.338;2022-08-21T08:08:06;101288.00;;;18.84;100.00
50065;BME280;35951;47.848;-122.338;2022-08-21T08:10:33;101281.42;;;18.84;100.00
50065;BME280;35951;47.848;-122.338;2022-08-21T08:13:01;101281.81;;;18.86;100.00
50065;BME280;35951;47.848;-122.338;2022-08-21T08:15:29;101281.81;;;18.86;100.00
50065;BME280;35951;47.848;-122.338;2022-08-21T08:17:59;101286.21;;;18.86;100.00
50065;BME280;35951;47.848;-122.338;2022-08-21T08:20:27;101291.91;;;18.87;100.00
50065;BME280;35951;47.848;-122.338;2022-08-21T08:22:56;101298.03;;;18.89;100.00
50065;BME280;35951;47.848;-122.338;2022-08-21T08:25:25;101301.95;;;18.90;100.00
50065;BME280;35951;47.848;-122.338;2022-08-21T08:27:53;101299.31;;;18.92;100.00
50065;BME280;35951;47.848;-122.338;2022-08-21T08:30:22;101295.36;;;18.92;100.00
50065;BME280;35951;47.848;-122.338;2022-08-21T08:32:50;101297.55;;;18.91;100.00
50065;BME280;35951;47.848;-122.338;2022-08-21T08:35:18;101298.88;;;18.91;100.00
50065;BME280;35951;47.848;-122.338;2022-08-21T08:37:46;101294.47;;;18.91;100.00
50065;BME280;35951;47.848;-122.338;2022-08-21T08:40:21;101295.31;;;18.93;100.00
50065;BME280;35951;47.848;-122.338;2022-08-21T08:42:49;101294.89;;;18.94;100.00
50065;BME280;35951;47.848;-122.338;2022-08-21T08:45:19;101287.41;;;18.93;100.00
50065;BME280;35951;47.848;-122.338;2022-08-21T08:47:56;101288.33;;;18.92;100.00
50065;BME280;35951;47.848;-122.338;2022-08-21T08:50:33;101293.13;;;18.93;100.00
50065;BME280;35951;47.848;-122.338;2022-08-21T08:53:05;101301.94;;;18.92;100.00
50065;BME280;35951;47.848;-122.338;2022-08-21T08:55:40;101296.22;;;18.92;100.00
50065;BME280;35951;47.848;-122.338;2022-08-21T08:58:12;101304.13;;;18.92;100.00
50065;BME280;35951;47.848;-122.338;2022-08-21T09:00:47;101301.03;;;18.93;100.00
50065;BME280;35951;47.848;-122.338;2022-08-21T09:03:16;101298.86;;;18.92;100.00
50065;BME280;35951;47.848;-122.338;2022-08-21T09:05:46;101297.12;;;18.90;100.00
50065;BME280;35951;47.848;-122.338;2022-08-21T09:11:37;101300.19;;;18.91;100.00
50065;BME280;35951;47.848;-122.338;2022-08-21T09:14:17;101304.59;;;18.90;100.00
50065;BME280;35951;47.848;-122.338;2022-08-21T09:17:25;101303.70;;;18.90;100.00
50065;BME280;35951;47.848;-122.338;2022-08-21T09:20:11;101307.70;;;18.88;100.00
50065;BME280;35951;47.848;-122.338;2022-08-21T09:28:20;101304.70;;;18.79;100.00
50065;BME280;35951;47.848;-122.338;2022-08-21T09:30:48;101306.03;;;18.78;100.00
50065;BME280;35951;47.848;-122.338;2022-08-21T09:33:17;101305.20;;;18.74;100.00
50065;BME280;35951;47.848;-122.338;2022-08-21T09:35:52;101310.46;;;18.74;100.00
50065;BME280;35951;47.848;-122.338;2022-08-21T09:38:29;101313.94;;;18.76;100.00
50065;BME280;35951;47.848;-122.338;2022-08-21T09:41:05;101307.34;;;18.78;100.00
50065;BME280;35951;47.848;-122.338;2022-08-21T09:43:35;101306.52;;;18.74;100.00
50065;BME280;35951;47.848;-122.338;2022-08-21T09:46:20;101313.11;;;18.73;100.00
50065;BME280;35951;47.848;-122.338;2022-08-21T09:48:52;101316.60;;;18.73;100.00
50065;BME280;35951;47.848;-122.338;2022-08-21T09:51:23;101315.75;;;18.71;100.00
50065;BME280;35951;47.848;-122.338;2022-08-21T09:57:12;101324.52;;;18.72;100.00
50065;BME280;35951;47.848;-122.338;2022-08-21T09:59:47;101322.76;;;18.74;100.00
50065;BME280;35951;47.848;-122.338;2022-08-21T10:02:34;101324.94;;;18.74;100.00
50065;BME280;35951;47.848;-122.338;2022-08-21T10:05:07;101327.55;;;18.76;100.00
50065;BME280;35951;47.848;-122.338;2022-08-21T10:07:38;101327.96;;;18.77;100.00
50065;BME280;35951;47.848;-122.338;2022-08-21T10:18:41;101326.73;;;18.71;100.00
50065;BME280;35951;47.848;-122.338;2022-08-21T10:21:27;101324.57;;;18.69;100.00
50065;BME280;35951;47.848;-122.338;2022-08-21T10:26:55;101337.28;;;18.68;100.00
50065;BME280;35951;47.848;-122.338;2022-08-21T10:29:49;101341.23;;;18.68;100.00
50065;BME280;35951;47.848;-122.338;2022-08-21T10:35:24;101336.87;;;18.68;100.00
50065;BME280;35951;47.848;-122.338;2022-08-21T10:38:19;101334.67;;;18.66;100.00
50065;BME280;35951;47.848;-122.338;2022-08-21T10:48:52;101346.03;;;18.70;100.00
50065;BME280;35951;47.848;-122.338;2022-08-21T10:57:50;101344.72;;;18.70;100.00
50065;BME280;35951;47.848;-122.338;2022-08-21T11:00:31;101349.56;;;18.70;100.00
50065;BME280;35951;47.848;-122.338;2022-08-21T11:03:16;101350.89;;;18.69;100.00
50065;BME280;35951;47.848;-122.338;2022-08-21T11:05:52;101352.22;;;18.67;100.00
50065;BME280;35951;47.848;-122.338;2022-08-21T11:16:43;101353.97;;;18.68;100.00
50065;BME280;35951;47.848;-122.338;2022-08-21T11:19:21;101356.61;;;18.68;100.00
50065;BME280;35951;47.848;-122.338;2022-08-21T11:27:43;101359.66;;;18.68;100.00
50065;BME280;35951;47.848;-122.338;2022-08-21T11:30:17;101365.83;;;18.67;100.00
50065;BME280;35951;47.848;-122.338;2022-08-21T11:32:56;101362.75;;;18.66;100.00
50065;BME280;35951;47.848;-122.338;2022-08-21T11:35:44;101357.94;;;18.67;100.00
50065;BME280;35951;47.848;-122.338;2022-08-21T11:38:39;101364.05;;;18.69;100.00
50065;BME280;35951;47.848;-122.338;2022-08-21T11:41:20;101367.94;;;18.72;100.00
50065;BME280;35951;47.848;-122.338;2022-08-21T11:44:04;101365.75;;;18.73;100.00
50065;BME280;35951;47.848;-122.338;2022-08-21T11:52:10;101372.70;;;18.77;100.00
50065;BME280;35951;47.848;-122.338;2022-08-21T11:58:17;101375.39;;;18.74;100.00
50065;BME280;35951;47.848;-122.338;2022-08-21T12:00:51;101374.52;;;18.72;100.00
50065;BME280;35951;47.848;-122.338;2022-08-21T12:03:41;101375.42;;;18.71;100.00
50065;BME280;35951;47.848;-122.338;2022-08-21T12:06:12;101375.83;;;18.72;100.00
50065;BME280;35951;47.848;-122.338;2022-08-21T12:08:43;101379.75;;;18.75;100.00
50065;BME280;35951;47.848;-122.338;2022-08-21T12:16:44;101383.23;;;18.77;100.00
50065;BME280;35951;47.848;-122.338;2022-08-21T12:19:27;101375.33;;;18.78;100.00
50065;BME280;35951;47.848;-122.338;2022-08-21T12:22:09;101380.14;;;18.79;100.00
50065;BME280;35951;47.848;-122.338;2022-08-21T12:24:43;101379.73;;;18.81;100.00
50065;BME280;35951;47.848;-122.338;2022-08-21T12:27:27;101374.88;;;18.82;100.00
50065;BME280;35951;47.848;-122.338;2022-08-21T12:30:33;101378.81;;;18.84;100.00
50065;BME280;35951;47.848;-122.338;2022-08-21T12:32:59;101379.69;;;18.83;100.00
50065;BME280;35951;47.848;-122.338;2022-08-21T12:35:39;101375.73;;;18.84;100.00
50065;BME280;35951;47.848;-122.338;2022-08-21T12:43:45;101358.63;;;18.83;100.00
50065;BME280;35951;47.848;-122.338;2022-08-21T12:46:19;101362.58;;;18.83;100.00
50065;BME280;35951;47.848;-122.338;2022-08-21T12:48:55;101370.05;;;18.83;100.00
50065;BME280;35951;47.848;-122.338;2022-08-21T12:54:27;101373.09;;;18.84;100.00
50065;BME280;35951;47.848;-122.338;2022-08-21T12:57:05;101373.98;;;18.85;100.00
50065;BME280;35951;47.848;-122.338;2022-08-21T12:59:38;101384.92;;;18.86;100.00
50065;BME280;35951;47.848;-122.338;2022-08-21T13:02:18;101384.05;;;18.87;100.00
50065;BME280;35951;47.848;-122.338;2022-08-21T13:04:48;101383.99;;;18.90;100.00
50065;BME280;35951;47.848;-122.338;2022-08-21T13:07:24;101386.63;;;18.90;100.00
50065;BME280;35951;47.848;-122.338;2022-08-21T13:10:14;101384.90;;;18.89;100.00
50065;BME280;35951;47.848;-122.338;2022-08-21T13:12:31;101389.26;;;18.90;100.00
50065;BME280;35951;47.848;-122.338;2022-08-21T13:15:03;101397.59;;;18.91;100.00
50065;BME280;35951;47.848;-122.338;2022-08-21T13:17:34;101395.45;;;18.87;100.00
50065;BME280;35951;47.848;-122.338;2022-08-21T13:20:09;101398.55;;;18.85;100.00
50065;BME280;35951;47.848;-122.338;2022-08-21T13:22:43;101409.07;;;18.85;100.00
50065;BME280;35951;47.848;-122.338;2022-08-21T13:25:13;101416.06;;;18.86;100.00
50065;BME280;35951;47.848;-122.338;2022-08-21T13:27:44;101415.19;;;18.87;100.00
50065;BME280;35951;47.848;-122.338;2022-08-21T13:30:19;101416.05;;;18.88;100.00
50065;BME280;35951;47.848;-122.338;2022-08-21T13:32:56;101415.19;;;18.87;100.00
50065;BME280;35951;47.848;-122.338;2022-08-21T13:35:24;101413.42;;;18.88;100.00
50065;BME280;35951;47.848;-122.338;2022-08-21T13:37:52;101417.83;;;18.86;100.00
50065;BME280;35951;47.848;-122.338;2022-08-21T13:40:30;101416.97;;;18.85;100.00
50065;BME280;35951;47.848;-122.338;2022-08-21T13:43:18;101419.15;;;18.86;100.00
50065;BME280;35951;47.848;-122.338;2022-08-21T13:45:51;101423.09;;;18.86;100.00
50065;BME280;35951;47.848;-122.338;2022-08-21T13:48:20;101421.33;;;18.86;100.00
50065;BME280;35951;47.848;-122.338;2022-08-21T13:50:49;101427.91;;;18.86;100.00
50065;BME280;35951;47.848;-122.338;2022-08-21T13:56:29;101429.20;;;18.89;100.00
50065;BME280;35951;47.848;-122.338;2022-08-21T13:58:53;101432.74;;;18.88;100.00